createdAt,value
2023-05-14T00:00:22.165Z,59.57
2023-05-14T00:02:49.047Z,59.42
2023-05-14T00:05:15.762Z,59.27
2023-05-14T00:07:42.253Z,59.28
2023-05-14T00:10:09.116Z,59.22
2023-05-14T00:12:35.689Z,59.20
2023-05-14T00:15:02.750Z,59.39
2023-05-14T00:17:29.345Z,59.43
2023-05-14T00:19:56.440Z,59.35
2023-05-14T00:22:22.974Z,59.52
2023-05-14T00:24:49.498Z,59.25
2023-05-14T00:27:16.102Z,59.25
2023-05-14T00:29:42.594Z,59.45
2023-05-14T00:32:09.090Z,59.47
2023-05-14T00:34:36.183Z,59.31
2023-05-14T00:37:02.666Z,59.29
2023-05-14T00:39:29.214Z,59.52
2023-05-14T00:41:55.792Z,59.62
2023-05-14T00:44:22.296Z,59.44
2023-05-14T00:46:48.994Z,59.45
2023-05-14T00:49:16.173Z,59.42
2023-05-14T00:51:46.770Z,59.41
2023-05-14T00:54:16.269Z,59.49
2023-05-14T00:56:46.062Z,59.42
2023-05-14T00:59:13.345Z,59.44
2023-05-14T01:01:40.774Z,59.30
2023-05-14T01:04:08.705Z,59.18
2023-05-14T01:07:04.294Z,59.00
2023-05-14T01:09:53.572Z,59.17
2023-05-14T01:12:43.454Z,58.96
2023-05-14T01:15:15.353Z,58.62
2023-05-14T01:18:07.297Z,58.72
2023-05-14T01:20:33.942Z,58.52
2023-05-14T01:23:00.475Z,58.28
2023-05-14T01:25:27.606Z,58.08
2023-05-14T01:28:12.604Z,58.05
2023-05-14T01:31:05.841Z,57.55
2023-05-14T01:33:35.205Z,58.02
2023-05-14T01:36:02.915Z,57.72
2023-05-14T01:38:31.736Z,57.62
2023-05-14T01:40:59.390Z,57.75
2023-05-14T01:43:26.186Z,57.72
2023-05-14T01:45:55.254Z,57.46
2023-05-14T01:48:21.879Z,57.65
2023-05-14T01:50:48.693Z,57.19
2023-05-14T01:53:15.171Z,56.96
2023-05-14T01:55:41.671Z,57.21
2023-05-14T01:58:08.357Z,57.31
2023-05-14T02:00:35.075Z,57.07
2023-05-14T02:03:01.660Z,57.04
2023-05-14T02:05:28.162Z,57.00
2023-05-14T02:07:54.741Z,57.13
2023-05-14T02:10:21.496Z,57.08
2023-05-14T02:12:48.108Z,57.02
2023-05-14T02:15:14.591Z,56.99
2023-05-14T02:17:41.166Z,57.22
2023-05-14T02:20:09.747Z,57.19
2023-05-14T02:22:36.500Z,57.03
2023-05-14T02:25:03.161Z,57.09
2023-05-14T02:27:29.724Z,57.11
2023-05-14T02:30:00.652Z,57.04
2023-05-14T02:32:28.392Z,57.37
2023-05-14T02:34:55.040Z,57.53
2023-05-14T02:37:21.567Z,57.31
2023-05-14T02:39:49.039Z,57.50
2023-05-14T02:42:15.608Z,57.32
2023-05-14T02:44:42.135Z,57.71
2023-05-14T02:47:08.694Z,57.66
2023-05-14T02:49:35.283Z,57.58
2023-05-14T02:52:01.759Z,57.71
2023-05-14T02:54:28.233Z,57.83
2023-05-14T02:56:54.767Z,57.73
2023-05-14T02:59:21.848Z,57.66
2023-05-14T03:01:48.875Z,57.94
2023-05-14T03:04:15.984Z,58.00
2023-05-14T03:06:42.704Z,57.61
2023-05-14T03:09:09.283Z,57.72
2023-05-14T03:11:35.978Z,57.55
2023-05-14T03:14:02.460Z,57.84
2023-05-14T03:16:28.994Z,57.56
2023-05-14T03:18:55.568Z,57.60
2023-05-14T03:21:22.191Z,57.91
2023-05-14T03:23:48.724Z,57.66
2023-05-14T03:26:15.326Z,57.61
2023-05-14T03:28:41.805Z,57.92
2023-05-14T03:31:08.387Z,57.78
2023-05-14T03:33:35.034Z,57.73
2023-05-14T03:36:01.657Z,57.93
2023-05-14T03:38:28.140Z,57.73
2023-05-14T03:40:54.784Z,57.80
2023-05-14T03:43:21.317Z,57.98
2023-05-14T03:45:52.292Z,57.96
2023-05-14T03:48:19.682Z,57.60
2023-05-14T03:50:46.526Z,57.71
2023-05-14T03:53:13.131Z,57.84
2023-05-14T03:55:39.625Z,58.03
2023-05-14T03:58:10.958Z,57.91
2023-05-14T04:00:37.499Z,58.10
2023-05-14T04:03:04.168Z,58.16
2023-05-14T04:05:30.736Z,57.91
2023-05-14T04:07:58.233Z,58.12
2023-05-14T04:10:24.940Z,58.15
2023-05-14T04:12:51.640Z,57.94
2023-05-14T04:15:18.121Z,58.15
2023-05-14T04:17:44.663Z,58.26
2023-05-14T04:20:11.390Z,58.20
2023-05-14T04:22:37.896Z,58.31
2023-05-14T04:25:04.788Z,58.26
2023-05-14T04:27:31.267Z,58.35
2023-05-14T04:29:58.343Z,58.13
2023-05-14T04:32:24.921Z,58.28
2023-05-14T04:34:51.422Z,58.30
2023-05-14T04:37:17.909Z,58.24
2023-05-14T04:39:44.414Z,58.28
2023-05-14T04:42:10.968Z,58.23
2023-05-14T04:44:37.928Z,58.08
2023-05-14T04:47:04.712Z,58.11
2023-05-14T04:49:31.207Z,58.16
2023-05-14T04:51:57.682Z,58.26
2023-05-14T04:54:24.255Z,58.26
2023-05-14T04:56:51.194Z,58.02
2023-05-14T04:59:17.709Z,58.19
2023-05-14T05:01:45.420Z,58.10
2023-05-14T05:04:12.273Z,57.94
2023-05-14T05:06:38.908Z,58.30
2023-05-14T05:09:05.420Z,58.26
2023-05-14T05:11:31.916Z,58.18
2023-05-14T05:13:58.412Z,58.24
2023-05-14T05:16:24.945Z,58.27
2023-05-14T05:18:51.599Z,58.23
2023-05-14T05:21:18.181Z,59.48
2023-05-14T05:23:44.694Z,59.28
2023-05-14T05:26:11.191Z,59.08
2023-05-14T05:28:37.742Z,58.99
2023-05-14T05:31:04.362Z,58.72
2023-05-14T05:33:31.115Z,58.75
2023-05-14T05:35:57.592Z,58.68
2023-05-14T05:38:24.078Z,58.43
2023-05-14T05:40:50.678Z,58.63
2023-05-14T05:43:17.231Z,58.43
2023-05-14T05:45:44.069Z,58.23
2023-05-14T05:48:10.617Z,58.28
2023-05-14T05:50:37.175Z,58.50
2023-05-14T05:53:04.000Z,58.30
2023-05-14T05:55:30.724Z,58.16
2023-05-14T05:57:57.225Z,58.36
2023-05-14T06:00:24.807Z,58.38
2023-05-14T06:02:51.744Z,58.42
2023-05-14T06:05:19.388Z,58.42
2023-05-14T06:07:46.022Z,58.33
2023-05-14T06:10:12.551Z,58.04
2023-05-14T06:12:39.109Z,58.21
2023-05-14T06:15:06.456Z,58.10
2023-05-14T06:17:33.044Z,58.30
2023-05-14T06:19:59.681Z,58.34
2023-05-14T06:22:26.308Z,58.02
2023-05-14T06:24:52.858Z,58.25
2023-05-14T06:27:19.347Z,58.05
2023-05-14T06:29:45.805Z,58.01
2023-05-14T06:32:15.435Z,58.07
2023-05-14T06:34:42.775Z,58.02
2023-05-14T06:37:10.507Z,57.98
2023-05-14T06:39:37.494Z,57.98
2023-05-14T06:42:04.417Z,58.05
2023-05-14T06:44:31.061Z,58.00
2023-05-14T06:46:57.555Z,57.90
2023-05-14T06:49:24.065Z,58.23
2023-05-14T06:51:50.556Z,57.95
2023-05-14T06:54:17.160Z,57.97
2023-05-14T06:56:43.671Z,58.07
2023-05-14T06:59:10.432Z,57.85
2023-05-14T07:01:37.352Z,57.98
2023-05-14T07:04:04.007Z,57.96
2023-05-14T07:06:30.825Z,58.09
2023-05-14T07:08:57.330Z,58.01
2023-05-14T07:11:23.843Z,57.93
2023-05-14T07:13:50.330Z,57.72
2023-05-14T07:16:16.876Z,57.94
2023-05-14T07:18:44.359Z,57.94
2023-05-14T07:21:11.358Z,57.91
2023-05-14T07:23:40.968Z,57.79
2023-05-14T07:26:08.000Z,57.74
2023-05-14T07:28:35.016Z,57.96
2023-05-14T07:31:01.586Z,57.79
2023-05-14T07:33:28.118Z,57.77
2023-05-14T07:35:54.629Z,57.77
2023-05-14T07:38:21.372Z,57.69
2023-05-14T07:40:47.868Z,57.45
2023-05-14T07:43:14.574Z,57.51
2023-05-14T07:45:41.290Z,57.47
2023-05-14T07:48:08.062Z,57.25
2023-05-14T07:50:34.676Z,57.50
2023-05-14T07:53:01.160Z,57.22
2023-05-14T07:55:27.695Z,57.15
2023-05-14T07:57:54.237Z,57.23
2023-05-14T08:00:21.322Z,57.33
2023-05-14T08:02:49.341Z,57.04
2023-05-14T08:05:16.648Z,57.28
2023-05-14T08:07:43.470Z,57.14
2023-05-14T08:10:10.623Z,57.01
2023-05-14T08:12:39.079Z,57.19
2023-05-14T08:15:07.771Z,57.44
2023-05-14T08:17:34.378Z,57.17
2023-05-14T08:20:01.440Z,57.13
2023-05-14T08:22:28.176Z,57.26
2023-05-14T08:24:54.910Z,57.10
2023-05-14T08:27:21.616Z,56.90
2023-05-14T08:29:48.090Z,56.91
2023-05-14T08:32:22.689Z,57.07
2023-05-14T08:34:49.643Z,56.99
2023-05-14T08:37:16.185Z,56.61
2023-05-14T08:39:42.704Z,56.73
2023-05-14T08:42:13.075Z,56.57
2023-05-14T08:44:47.379Z,56.49
2023-05-14T08:47:17.852Z,56.34
2023-05-14T08:49:47.673Z,56.44
2023-05-14T08:52:17.697Z,56.30
2023-05-14T08:54:46.727Z,56.08
2023-05-14T08:57:14.342Z,56.30
2023-05-14T08:59:41.246Z,56.27
2023-05-14T09:02:10.050Z,56.16
2023-05-14T09:04:37.398Z,56.16
2023-05-14T09:07:04.210Z,55.95
2023-05-14T09:09:31.289Z,56.09
2023-05-14T09:11:57.845Z,55.91
2023-05-14T09:14:24.453Z,55.79
2023-05-14T09:16:51.932Z,55.67
2023-05-14T09:19:19.334Z,55.61
2023-05-14T09:21:47.954Z,55.76
2023-05-14T09:24:21.490Z,55.50
2023-05-14T09:26:51.666Z,55.58
2023-05-14T09:29:18.423Z,55.30
2023-05-14T09:31:45.361Z,55.67
2023-05-14T09:34:12.271Z,55.44
2023-05-14T09:36:38.807Z,55.44
2023-05-14T09:39:05.706Z,55.11
2023-05-14T09:41:32.224Z,55.20
2023-05-14T09:43:58.738Z,54.96
2023-05-14T09:46:30.088Z,55.13
2023-05-14T09:48:57.051Z,54.78
2023-05-14T09:51:23.968Z,54.55
2023-05-14T09:53:53.485Z,54.53
2023-05-14T09:56:21.717Z,54.55
2023-05-14T09:58:48.669Z,54.63
2023-05-14T10:01:19.025Z,55.32
2023-05-14T10:03:45.720Z,55.24
2023-05-14T10:06:13.493Z,55.04
2023-05-14T10:08:43.512Z,54.67
2023-05-14T10:11:24.963Z,54.65
2023-05-14T10:13:58.035Z,54.40
2023-05-14T10:16:29.803Z,54.44
2023-05-14T10:19:01.493Z,54.17
2023-05-14T10:21:31.841Z,54.21
2023-05-14T10:23:58.531Z,54.01
2023-05-14T10:26:25.454Z,53.99
2023-05-14T10:28:52.087Z,54.28
2023-05-14T10:31:18.643Z,53.81
2023-05-14T10:33:50.491Z,53.77
2023-05-14T10:36:18.623Z,53.50
2023-05-14T10:38:45.322Z,53.34
2023-05-14T10:41:17.797Z,53.32
2023-05-14T10:43:44.790Z,53.31
2023-05-14T10:46:12.980Z,53.16
2023-05-14T10:48:42.754Z,52.98
2023-05-14T10:51:10.756Z,52.76
2023-05-14T10:53:42.759Z,52.73
2023-05-14T10:56:11.098Z,52.28
2023-05-14T10:58:43.063Z,52.27
2023-05-14T11:01:12.240Z,52.29
2023-05-14T11:03:44.337Z,52.18
2023-05-14T11:06:13.132Z,52.23
2023-05-14T11:08:40.037Z,52.14
2023-05-14T11:11:07.407Z,52.38
2023-05-14T11:13:34.722Z,52.22
2023-05-14T11:16:12.008Z,52.13
2023-05-14T11:18:48.106Z,52.12
2023-05-14T11:21:14.706Z,52.15
2023-05-14T11:23:41.182Z,52.16
2023-05-14T11:26:08.024Z,52.25
2023-05-14T11:28:34.568Z,52.40
2023-05-14T11:31:01.350Z,52.33
2023-05-14T11:33:28.421Z,52.20
2023-05-14T11:35:54.960Z,52.01
2023-05-14T11:38:21.608Z,51.60
2023-05-14T11:40:55.733Z,51.28
2023-05-14T11:43:32.082Z,51.28
2023-05-14T11:45:58.596Z,51.24
2023-05-14T11:48:25.300Z,51.48
2023-05-14T11:50:52.601Z,51.36
2023-05-14T11:53:28.030Z,51.11
2023-05-14T11:55:55.352Z,51.37
2023-05-14T11:58:22.133Z,51.14
2023-05-14T12:00:53.318Z,50.83
2023-05-14T12:03:26.746Z,50.89
2023-05-14T12:05:59.417Z,50.89
2023-05-14T12:08:30.416Z,51.00
2023-05-14T12:10:59.617Z,50.89
2023-05-14T12:13:30.757Z,50.73
2023-05-14T12:15:59.326Z,50.88
2023-05-14T12:18:27.672Z,50.92
2023-05-14T12:20:54.377Z,50.98
2023-05-14T12:23:29.192Z,51.01
2023-05-14T12:25:56.037Z,50.84
2023-05-14T12:28:23.353Z,50.75
2023-05-14T12:30:56.553Z,50.63
2023-05-14T12:33:26.612Z,50.82
2023-05-14T12:35:53.926Z,50.61
2023-05-14T12:38:20.435Z,50.66
2023-05-14T12:40:47.593Z,50.31
2023-05-14T12:43:14.424Z,50.08
2023-05-14T12:45:40.925Z,49.96
2023-05-14T12:48:07.762Z,49.48
2023-05-14T12:50:34.321Z,49.52
2023-05-14T12:53:00.819Z,49.80
2023-05-14T12:55:27.494Z,49.99
2023-05-14T12:57:54.452Z,50.00
2023-05-14T13:00:21.066Z,50.24
2023-05-14T13:02:47.669Z,49.98
2023-05-14T13:05:14.292Z,49.78
2023-05-14T13:07:41.179Z,49.88
2023-05-14T13:10:08.369Z,49.90
2023-05-14T13:12:35.005Z,49.80
2023-05-14T13:15:01.660Z,49.89
2023-05-14T13:17:28.230Z,49.93
2023-05-14T13:19:54.795Z,49.88
2023-05-14T13:22:21.340Z,50.47
2023-05-14T13:24:47.862Z,50.53
2023-05-14T13:27:14.349Z,50.83
2023-05-14T13:29:41.484Z,50.88
2023-05-14T13:32:08.318Z,50.54
2023-05-14T13:34:34.954Z,50.38
2023-05-14T13:37:01.625Z,50.09
2023-05-14T13:39:28.115Z,50.50
2023-05-14T13:41:56.754Z,50.43
2023-05-14T13:44:23.557Z,50.27
2023-05-14T13:46:50.258Z,50.66
2023-05-14T13:49:16.826Z,50.74
2023-05-14T13:51:43.443Z,50.66
2023-05-14T13:54:10.559Z,50.55
2023-05-14T13:56:37.068Z,50.85
2023-05-14T13:59:04.042Z,50.61
2023-05-14T14:01:31.061Z,51.29
2023-05-14T14:03:57.677Z,51.28
2023-05-14T14:06:27.276Z,51.10
2023-05-14T14:08:54.064Z,51.17
2023-05-14T14:11:20.832Z,51.33
2023-05-14T14:13:47.346Z,51.33
2023-05-14T14:16:13.997Z,51.21
2023-05-14T14:18:41.321Z,51.30
2023-05-14T14:21:07.866Z,51.23
2023-05-14T14:23:34.383Z,51.32
2023-05-14T14:26:01.201Z,51.16
2023-05-14T14:28:27.715Z,50.98
2023-05-14T14:30:54.218Z,50.83
2023-05-14T14:33:20.766Z,50.84
2023-05-14T14:35:47.267Z,50.74
2023-05-14T14:38:14.100Z,50.83
2023-05-14T14:40:40.797Z,50.61
2023-05-14T14:43:07.405Z,50.24
2023-05-14T14:45:34.067Z,50.27
2023-05-14T14:48:34.037Z,49.65
2023-05-14T14:51:03.631Z,50.01
2023-05-14T14:53:31.177Z,49.63
2023-05-14T14:55:58.733Z,49.90
2023-05-14T14:58:25.266Z,49.98
2023-05-14T15:00:56.110Z,50.03
2023-05-14T15:03:24.320Z,49.98
2023-05-14T15:05:52.242Z,50.07
2023-05-14T15:08:19.276Z,50.24
2023-05-14T15:10:45.834Z,50.23
2023-05-14T15:13:13.019Z,50.18
2023-05-14T15:15:39.528Z,50.19
2023-05-14T15:18:06.200Z,50.33
2023-05-14T15:20:32.738Z,50.22
2023-05-14T15:22:59.238Z,50.49
2023-05-14T15:25:26.712Z,50.56
2023-05-14T15:27:53.421Z,50.40
2023-05-14T15:30:20.257Z,50.25
2023-05-14T15:32:46.958Z,49.59
2023-05-14T15:35:13.706Z,49.74
2023-05-14T15:37:42.784Z,49.82
2023-05-14T15:40:10.446Z,49.89
2023-05-14T15:42:44.037Z,49.89
2023-05-14T15:45:12.526Z,49.62
2023-05-14T15:47:40.169Z,49.77
2023-05-14T15:50:07.108Z,49.84
2023-05-14T15:52:34.063Z,50.01
2023-05-14T15:55:00.872Z,50.10
2023-05-14T15:57:27.652Z,49.94
2023-05-14T15:59:54.383Z,49.97
2023-05-14T16:02:20.866Z,50.15
2023-05-14T16:04:49.382Z,49.87
2023-05-14T16:07:16.144Z,49.97
2023-05-14T16:09:42.706Z,50.28
2023-05-14T16:12:09.323Z,50.24
2023-05-14T16:14:36.193Z,50.30
2023-05-14T16:17:02.862Z,50.43
2023-05-14T16:19:29.338Z,50.07
2023-05-14T16:21:55.872Z,50.12
2023-05-14T16:24:22.449Z,50.09
2023-05-14T16:26:49.086Z,50.08
2023-05-14T16:29:15.897Z,50.30
2023-05-14T16:31:42.528Z,50.17
2023-05-14T16:34:09.025Z,50.22
2023-05-14T16:36:35.697Z,58.64
2023-05-14T16:41:31.692Z,54.41
2023-05-14T16:43:58.176Z,53.43
2023-05-14T16:46:24.713Z,52.77
2023-05-14T16:48:51.573Z,52.35
2023-05-14T16:51:18.106Z,52.09
2023-05-14T16:53:44.611Z,52.08
2023-05-14T16:56:11.202Z,51.69
2023-05-14T16:58:38.367Z,51.49
2023-05-14T17:01:06.289Z,51.43
2023-05-14T17:03:33.973Z,51.31
2023-05-14T17:06:00.479Z,51.00
2023-05-14T17:08:32.301Z,51.18
2023-05-14T17:10:59.049Z,51.04
2023-05-14T17:13:25.636Z,50.62
2023-05-14T17:15:52.209Z,50.82
2023-05-14T17:18:18.864Z,50.49
2023-05-14T17:20:45.574Z,50.50
2023-05-14T17:23:12.121Z,50.75
2023-05-14T17:25:38.686Z,50.56
2023-05-14T17:28:05.564Z,50.47
2023-05-14T17:30:32.655Z,50.37
2023-05-14T17:32:59.344Z,50.55
2023-05-14T17:35:26.038Z,50.12
2023-05-14T17:37:52.702Z,50.36
2023-05-14T17:40:19.304Z,50.62
2023-05-14T17:42:46.347Z,50.76
2023-05-14T17:45:13.611Z,50.88
2023-05-14T17:47:40.272Z,50.90
2023-05-14T17:50:07.347Z,51.42
2023-05-14T17:52:33.868Z,51.31
2023-05-14T17:55:00.401Z,51.42
2023-05-14T17:57:27.047Z,51.56
2023-05-14T17:59:53.550Z,51.90
2023-05-14T18:02:20.057Z,51.65
2023-05-14T18:04:46.724Z,51.82
2023-05-14T18:07:13.410Z,52.18
2023-05-14T18:09:39.923Z,52.28
2023-05-14T18:12:07.019Z,52.59
2023-05-14T18:14:33.491Z,52.45
2023-05-14T18:17:00.160Z,52.88
2023-05-14T18:19:26.794Z,53.06
2023-05-14T18:21:55.479Z,53.13
2023-05-14T18:24:22.534Z,53.09
2023-05-14T18:26:49.625Z,53.09
2023-05-14T18:29:16.104Z,53.30
2023-05-14T18:31:42.627Z,53.49
2023-05-14T18:34:09.127Z,53.37
2023-05-14T18:36:35.809Z,53.61
2023-05-14T18:39:02.311Z,53.52
2023-05-14T18:41:28.827Z,53.58
2023-05-14T18:43:55.423Z,53.46
2023-05-14T18:46:22.092Z,53.61
2023-05-14T18:48:48.593Z,53.45
2023-05-14T18:51:15.262Z,53.65
2023-05-14T18:53:41.775Z,53.60
2023-05-14T18:56:09.537Z,53.49
2023-05-14T18:58:36.036Z,53.58
2023-05-14T19:01:02.667Z,53.53
2023-05-14T19:03:29.281Z,53.46
2023-05-14T19:05:55.994Z,53.39
2023-05-14T19:08:22.566Z,53.36
2023-05-14T19:10:49.091Z,53.53
2023-05-14T19:13:18.352Z,53.56
2023-05-14T19:15:44.912Z,53.65
2023-05-14T19:18:12.995Z,53.78
2023-05-14T19:20:39.569Z,53.84
2023-05-14T19:23:06.164Z,53.98
2023-05-14T19:25:33.696Z,53.90
2023-05-14T19:28:02.129Z,53.86
2023-05-14T19:30:28.689Z,53.56
2023-05-14T19:32:55.221Z,53.58
2023-05-14T19:35:21.844Z,53.70
2023-05-14T19:37:48.486Z,53.70
2023-05-14T19:40:15.021Z,53.62
2023-05-14T19:42:41.525Z,53.46
2023-05-14T19:45:08.263Z,53.42
2023-05-14T19:47:34.902Z,53.39
2023-05-14T19:50:01.513Z,53.63
2023-05-14T19:52:28.013Z,53.47
2023-05-14T19:54:54.499Z,53.62
2023-05-14T19:57:21.143Z,53.50
2023-05-14T19:59:47.693Z,53.63
2023-05-14T20:02:18.177Z,53.59
2023-05-14T20:04:46.139Z,53.68
2023-05-14T20:07:15.583Z,53.56
2023-05-14T20:09:42.205Z,53.78
2023-05-14T20:12:09.274Z,53.51
2023-05-14T20:14:35.948Z,53.67
2023-05-14T20:17:02.559Z,53.75
2023-05-14T20:19:29.126Z,53.68
2023-05-14T20:21:56.435Z,53.47
2023-05-14T20:24:22.973Z,53.77
2023-05-14T20:26:49.527Z,53.51
2023-05-14T20:29:16.098Z,53.49
2023-05-14T20:31:42.630Z,52.88
2023-05-14T20:34:09.495Z,52.53
2023-05-14T20:36:36.085Z,52.11
2023-05-14T20:39:02.878Z,52.81
2023-05-14T20:41:29.365Z,52.06
2023-05-14T20:43:55.860Z,51.30
2023-05-14T20:46:22.389Z,51.30
2023-05-14T20:48:49.039Z,50.78
2023-05-14T20:51:15.519Z,50.68
2023-05-14T20:53:42.053Z,50.84
2023-05-14T20:56:08.522Z,51.09
2023-05-14T20:58:35.450Z,50.88
2023-05-14T21:01:02.196Z,50.71
2023-05-14T21:03:28.769Z,51.02
2023-05-14T21:05:56.828Z,50.88
2023-05-14T21:08:23.353Z,51.46
2023-05-14T21:10:49.846Z,51.81
2023-05-14T21:13:16.331Z,51.99
2023-05-14T21:15:42.903Z,51.87
2023-05-14T21:18:09.696Z,52.45
2023-05-14T21:20:36.265Z,52.42
2023-05-14T21:23:02.789Z,52.42
2023-05-14T21:25:29.354Z,52.79
2023-05-14T21:27:56.652Z,52.97
2023-05-14T21:30:23.226Z,52.91
2023-05-14T21:32:49.908Z,53.41
2023-05-14T21:35:16.597Z,53.34
2023-05-14T21:37:43.322Z,53.54
2023-05-14T21:40:12.179Z,53.72
2023-05-14T21:42:40.706Z,53.75
2023-05-14T21:45:07.617Z,53.72
2023-05-14T21:47:34.374Z,53.96
2023-05-14T21:50:01.014Z,53.82
2023-05-14T21:52:27.546Z,54.05
2023-05-14T21:54:54.060Z,54.00
2023-05-14T21:57:20.654Z,53.89
2023-05-14T21:59:47.147Z,54.24
2023-05-14T22:02:13.820Z,54.20
2023-05-14T22:04:40.538Z,54.09
2023-05-14T22:07:07.084Z,54.18
2023-05-14T22:09:33.648Z,54.14
2023-05-14T22:12:00.196Z,54.39
2023-05-14T22:14:27.338Z,54.50
2023-05-14T22:16:54.128Z,54.34
2023-05-14T22:19:21.116Z,54.50
2023-05-14T22:21:47.652Z,54.64
2023-05-14T22:24:14.184Z,54.40
2023-05-14T22:26:40.724Z,54.48
2023-05-14T22:29:07.202Z,54.55
2023-05-14T22:31:33.729Z,54.76
2023-05-14T22:34:00.305Z,54.87
2023-05-14T22:36:26.798Z,55.01
2023-05-14T22:38:53.289Z,54.72
2023-05-14T22:41:21.859Z,54.80
2023-05-14T22:43:49.186Z,54.78
2023-05-14T22:46:16.097Z,55.04
2023-05-14T22:48:42.707Z,55.00
2023-05-14T22:51:09.228Z,54.83
2023-05-14T22:53:35.938Z,55.14
2023-05-14T22:56:02.540Z,54.63
2023-05-14T22:58:29.075Z,55.18
2023-05-14T23:00:55.677Z,54.86
2023-05-14T23:03:22.175Z,55.13
2023-05-14T23:05:48.679Z,55.13
2023-05-14T23:08:15.223Z,55.20
2023-05-14T23:10:41.732Z,55.00
2023-05-14T23:13:08.229Z,55.02
2023-05-14T23:15:34.784Z,54.97
2023-05-14T23:18:01.516Z,55.22
2023-05-14T23:20:28.267Z,55.25
2023-05-14T23:22:54.788Z,55.26
2023-05-14T23:25:21.331Z,55.18
2023-05-14T23:27:48.233Z,55.25
2023-05-14T23:30:14.811Z,55.09
2023-05-14T23:32:41.393Z,55.35
2023-05-14T23:35:08.318Z,55.14
2023-05-14T23:37:36.798Z,55.47
2023-05-14T23:40:04.447Z,55.31
2023-05-14T23:42:30.897Z,55.27
2023-05-14T23:44:57.357Z,55.13
2023-05-14T23:47:23.908Z,55.29
2023-05-14T23:49:50.595Z,55.36
2023-05-14T23:52:17.099Z,55.60
2023-05-14T23:54:43.642Z,55.39
2023-05-14T23:57:12.967Z,55.12
2023-05-14T23:59:40.852Z,55.11
